createdAt,value
2017-12-20T00:00:09.512Z,10.00
2017-12-20T00:02:36.544Z,9.57
2017-12-20T00:05:02.732Z,9.50
2017-12-20T00:07:29.680Z,8.87
2017-12-20T00:09:56.603Z,10.87
2017-12-20T00:12:22.809Z,13.43
2017-12-20T00:14:48.992Z,15.97
2017-12-20T00:17:15.201Z,14.33
2017-12-20T00:19:42.124Z,18.13
2017-12-20T00:22:08.552Z,18.00
2017-12-20T00:24:34.735Z,10.50
2017-12-20T00:27:00.920Z,18.17
2017-12-20T00:29:27.156Z,11.10
2017-12-20T00:31:53.413Z,8.73
2017-12-20T00:34:20.369Z,7.90
2017-12-20T00:36:46.557Z,10.77
2017-12-20T00:39:12.740Z,8.93
2017-12-20T00:41:38.962Z,12.87
2017-12-20T00:44:05.172Z,20.37
2017-12-20T00:46:32.129Z,21.10
2017-12-20T00:48:58.307Z,24.13
2017-12-20T00:51:26.005Z,20.90
2017-12-20T00:53:52.937Z,19.60
2017-12-20T00:56:19.887Z,18.67
2017-12-20T00:58:46.818Z,21.10
2017-12-20T01:01:13.032Z,23.10
2017-12-20T01:03:39.220Z,22.63
2017-12-20T01:06:05.448Z,23.43
2017-12-20T01:08:31.644Z,19.70
2017-12-20T01:10:58.681Z,19.30
2017-12-20T01:13:24.867Z,15.63
2017-12-20T01:15:51.053Z,16.87
2017-12-20T01:18:18.017Z,16.47
2017-12-20T01:20:44.204Z,16.60
2017-12-20T01:23:10.393Z,17.90
2017-12-20T01:25:36.592Z,18.50
2017-12-20T01:28:03.548Z,15.67
2017-12-20T01:30:29.760Z,15.37
2017-12-20T01:32:56.684Z,16.67
2017-12-20T01:35:22.893Z,16.03
2017-12-20T01:37:49.072Z,18.03
2017-12-20T01:40:16.348Z,16.67
2017-12-20T01:42:42.548Z,15.20
2017-12-20T01:45:09.476Z,16.27
2017-12-20T01:47:36.499Z,13.83
2017-12-20T01:50:02.768Z,16.77
2017-12-20T01:52:29.981Z,16.00
2017-12-20T01:54:56.172Z,14.50
2017-12-20T01:57:22.369Z,16.33
2017-12-20T01:59:49.325Z,16.47
2017-12-20T02:02:16.312Z,21.20
2017-12-20T02:04:42.520Z,18.70
2017-12-20T02:07:08.704Z,18.70
2017-12-20T02:09:34.913Z,16.77
2017-12-20T02:12:01.091Z,20.00
2017-12-20T02:14:28.069Z,13.33
2017-12-20T02:16:54.628Z,16.83
2017-12-20T02:19:21.164Z,17.60
2017-12-20T02:21:47.681Z,17.57
2017-12-20T02:24:14.337Z,16.83
2017-12-20T02:26:41.373Z,16.50
2017-12-20T02:29:07.689Z,19.67
2017-12-20T02:31:33.900Z,19.40
2017-12-20T02:34:00.228Z,18.43
2017-12-20T02:36:26.434Z,20.77
2017-12-20T02:38:53.489Z,16.10
2017-12-20T02:41:20.452Z,22.07
2017-12-20T02:43:47.416Z,16.77
2017-12-20T02:46:13.625Z,21.63
2017-12-20T02:48:40.573Z,21.23
2017-12-20T02:51:07.057Z,17.80
2017-12-20T02:53:33.268Z,19.23
2017-12-20T02:55:59.456Z,20.33
2017-12-20T02:58:26.447Z,21.50
2017-12-20T03:00:52.640Z,21.07
2017-12-20T03:03:18.895Z,20.77
2017-12-20T03:05:45.136Z,24.20
2017-12-20T03:08:11.392Z,22.20
2017-12-20T03:10:37.592Z,23.00
2017-12-20T03:13:03.811Z,23.27
2017-12-20T03:15:30.040Z,23.17
2017-12-20T03:17:56.253Z,21.97
2017-12-20T03:20:22.436Z,20.37
2017-12-20T03:22:48.953Z,22.93
2017-12-20T03:25:15.142Z,21.60
2017-12-20T03:27:41.403Z,21.47
2017-12-20T03:30:07.654Z,24.20
2017-12-20T03:32:33.846Z,22.90
2017-12-20T03:35:00.028Z,23.10
2017-12-20T03:37:26.269Z,21.77
2017-12-20T03:39:52.504Z,24.47
2017-12-20T03:42:19.448Z,25.43
2017-12-20T03:44:46.380Z,25.37
2017-12-20T03:47:12.592Z,24.37
2017-12-20T03:49:38.780Z,24.57
2017-12-20T03:52:05.297Z,25.70
2017-12-20T03:54:32.217Z,27.07
2017-12-20T03:56:58.427Z,24.60
2017-12-20T03:59:24.632Z,25.67
2017-12-20T04:01:50.848Z,25.90
2017-12-20T04:04:17.091Z,27.13
2017-12-20T04:06:43.280Z,25.90
2017-12-20T04:09:10.209Z,25.87
2017-12-20T04:11:37.329Z,23.70
2017-12-20T04:14:03.512Z,25.53
2017-12-20T04:16:29.705Z,25.03
2017-12-20T04:18:55.912Z,22.37
2017-12-20T04:21:22.096Z,24.50
2017-12-20T04:23:48.300Z,25.87
2017-12-20T04:26:14.480Z,21.90
2017-12-20T04:28:40.924Z,27.07
2017-12-20T04:31:07.131Z,24.80
2017-12-20T04:33:33.321Z,27.97
2017-12-20T04:36:00.277Z,26.73
2017-12-20T04:38:27.200Z,29.67
2017-12-20T04:40:53.612Z,28.73
2017-12-20T04:43:19.804Z,26.03
2017-12-20T04:45:45.992Z,27.97
2017-12-20T04:48:12.241Z,23.33
2017-12-20T04:50:39.167Z,29.10
2017-12-20T04:53:05.348Z,26.73
2017-12-20T04:55:31.556Z,27.73
2017-12-20T04:57:57.805Z,26.37
2017-12-20T05:00:23.989Z,24.40
2017-12-20T05:02:50.925Z,29.87
2017-12-20T05:05:17.173Z,26.20
2017-12-20T05:07:44.096Z,31.90
2017-12-20T05:10:10.316Z,30.60
2017-12-20T05:12:36.496Z,28.43
2017-12-20T05:15:02.696Z,27.77
2017-12-20T05:17:29.628Z,24.20
2017-12-20T05:19:55.812Z,25.97
2017-12-20T05:22:22.028Z,23.40
2017-12-20T05:24:48.256Z,29.17
2017-12-20T05:27:14.443Z,29.00
2017-12-20T05:29:40.660Z,32.33
2017-12-20T05:32:06.871Z,24.60
2017-12-20T05:34:33.060Z,28.57
2017-12-20T05:36:59.304Z,30.17
2017-12-20T05:39:25.488Z,25.57
2017-12-20T05:41:51.696Z,27.23
2017-12-20T05:44:17.885Z,30.43
2017-12-20T05:46:44.304Z,28.93
2017-12-20T05:49:11.220Z,29.20
2017-12-20T05:51:38.884Z,31.33
2017-12-20T05:54:05.089Z,27.47
2017-12-20T05:56:31.272Z,19.30
2017-12-20T05:58:58.232Z,24.47
2017-12-20T06:01:24.417Z,26.43
2017-12-20T06:03:51.034Z,27.17
2017-12-20T06:06:17.215Z,28.23
2017-12-20T06:08:43.404Z,25.17
2017-12-20T06:11:09.612Z,27.97
2017-12-20T06:13:35.792Z,25.87
2017-12-20T06:16:02.741Z,28.33
2017-12-20T06:18:29.667Z,27.43
2017-12-20T06:20:55.877Z,27.70
2017-12-20T06:23:22.069Z,30.20
2017-12-20T06:25:48.276Z,28.23
2017-12-20T06:28:14.579Z,31.47
2017-12-20T06:30:40.804Z,24.47
2017-12-20T06:33:06.988Z,30.70
2017-12-20T06:35:33.200Z,30.03
2017-12-20T06:37:59.384Z,26.07
2017-12-20T06:40:26.000Z,30.47
2017-12-20T06:42:52.189Z,28.40
2017-12-20T06:45:18.376Z,28.40
2017-12-20T06:47:44.584Z,23.50
2017-12-20T06:50:10.765Z,22.10
2017-12-20T06:52:37.716Z,26.17
2017-12-20T06:55:03.908Z,22.87
2017-12-20T06:57:30.128Z,31.50
2017-12-20T06:59:56.316Z,30.77
2017-12-20T07:04:56.856Z,31.53
2017-12-20T07:07:23.036Z,27.63
2017-12-20T07:09:49.247Z,31.20
2017-12-20T07:12:15.429Z,32.13
2017-12-20T07:14:42.377Z,36.07
2017-12-20T07:17:09.300Z,33.90
2017-12-20T07:19:35.514Z,31.80
2017-12-20T07:22:02.449Z,31.40
2017-12-20T07:24:28.680Z,28.07
2017-12-20T07:26:54.861Z,30.70
2017-12-20T07:29:21.245Z,32.97
2017-12-20T07:31:47.427Z,27.80
2017-12-20T07:34:13.648Z,26.37
2017-12-20T07:36:39.840Z,32.57
2017-12-20T07:39:06.028Z,26.83
2017-12-20T07:41:32.242Z,31.93
2017-12-20T07:43:58.432Z,29.53
2017-12-20T07:46:24.645Z,23.97
2017-12-20T07:48:50.828Z,32.43
2017-12-20T07:51:17.053Z,33.23
2017-12-20T07:53:43.241Z,25.00
2017-12-20T07:56:09.428Z,29.83
2017-12-20T07:58:35.632Z,36.23
2017-12-20T08:01:01.884Z,39.53
2017-12-20T08:03:28.100Z,25.30
2017-12-20T08:05:54.285Z,36.47
2017-12-20T08:08:20.483Z,37.20
2017-12-20T08:10:46.925Z,26.60
2017-12-20T08:13:13.112Z,29.47
2017-12-20T08:15:39.301Z,32.07
2017-12-20T08:18:05.517Z,36.30
2017-12-20T08:22:54.633Z,28.80
2017-12-20T08:25:20.849Z,29.37
2017-12-20T08:27:47.056Z,23.17
2017-12-20T08:30:13.268Z,38.70
2017-12-20T08:32:39.531Z,40.00
2017-12-20T08:35:06.467Z,33.33
2017-12-20T08:37:32.657Z,32.57
2017-12-20T08:39:58.864Z,28.47
2017-12-20T08:42:25.054Z,28.23
2017-12-20T08:44:51.268Z,15.50
2017-12-20T08:47:17.452Z,25.90
2017-12-20T08:49:43.696Z,30.20
2017-12-20T08:52:09.880Z,27.20
2017-12-20T08:54:36.092Z,19.90
2017-12-20T08:57:02.283Z,27.30
2017-12-20T08:59:28.484Z,20.13
2017-12-20T09:01:55.408Z,29.70
2017-12-20T09:04:21.625Z,27.33
2017-12-20T09:06:47.816Z,32.10
2017-12-20T09:09:14.029Z,29.70
2017-12-20T09:11:40.216Z,29.97
2017-12-20T09:14:06.476Z,34.00
2017-12-20T09:16:33.404Z,22.43
2017-12-20T09:18:59.590Z,31.70
2017-12-20T09:21:26.052Z,32.80
2017-12-20T09:23:53.008Z,34.77
2017-12-20T09:26:19.244Z,32.57
2017-12-20T09:28:46.181Z,28.97
2017-12-20T09:31:13.172Z,35.43
2017-12-20T09:33:39.430Z,40.10
2017-12-20T09:36:05.640Z,33.67
2017-12-20T09:38:31.832Z,36.50
2017-12-20T09:40:58.792Z,30.87
2017-12-20T09:43:24.980Z,26.77
2017-12-20T09:45:51.982Z,30.50
2017-12-20T09:48:18.169Z,23.23
2017-12-20T09:50:45.111Z,20.90
2017-12-20T09:53:11.324Z,21.07
2017-12-20T09:55:37.532Z,22.70
2017-12-20T09:58:03.716Z,17.27
2017-12-20T10:00:30.664Z,19.53
2017-12-20T10:02:57.596Z,35.63
2017-12-20T10:05:24.548Z,33.97
2017-12-20T10:07:51.482Z,19.67
2017-12-20T10:10:18.448Z,34.77
2017-12-20T10:12:45.391Z,31.90
2017-12-20T10:15:12.502Z,26.47
2017-12-20T10:17:38.687Z,35.47
2017-12-20T10:20:04.876Z,23.17
2017-12-20T10:22:31.113Z,23.27
2017-12-20T10:24:58.065Z,25.93
2017-12-20T10:27:24.996Z,17.33
2017-12-20T10:29:51.210Z,21.23
2017-12-20T10:32:17.447Z,20.97
2017-12-20T10:34:43.869Z,16.80
2017-12-20T10:37:10.055Z,16.40
2017-12-20T10:39:36.240Z,18.40
2017-12-20T10:42:02.445Z,23.83
2017-12-20T10:44:28.632Z,17.07
2017-12-20T10:46:54.844Z,16.17
2017-12-20T10:49:21.772Z,19.90
2017-12-20T10:51:47.988Z,18.47
2017-12-20T10:54:14.232Z,16.70
2017-12-20T10:56:40.448Z,12.83
2017-12-20T10:59:06.641Z,18.10
2017-12-20T11:01:32.893Z,15.13
2017-12-20T11:03:59.080Z,17.93
2017-12-20T11:06:25.288Z,16.80
2017-12-20T11:08:52.229Z,19.10
2017-12-20T11:11:18.667Z,18.43
2017-12-20T11:13:44.840Z,13.17
2017-12-20T11:16:11.027Z,17.23
2017-12-20T11:18:37.980Z,13.90
2017-12-20T11:21:04.912Z,18.10
2017-12-20T11:23:31.131Z,18.30
2017-12-20T11:25:57.332Z,16.90
2017-12-20T11:28:23.581Z,17.30
2017-12-20T11:30:49.828Z,16.77
2017-12-20T11:33:16.769Z,14.43
2017-12-20T11:35:43.000Z,15.47
2017-12-20T11:38:09.188Z,13.50
2017-12-20T11:40:35.383Z,15.37
2017-12-20T11:43:01.765Z,16.53
2017-12-20T11:45:27.972Z,14.77
2017-12-20T11:47:54.156Z,18.90
2017-12-20T11:50:21.103Z,14.30
2017-12-20T11:52:48.028Z,16.90
2017-12-20T11:55:14.239Z,14.70
2017-12-20T11:57:40.424Z,16.93
2017-12-20T12:00:06.648Z,17.00
2017-12-20T12:02:33.576Z,12.70
2017-12-20T12:05:00.528Z,16.17
2017-12-20T12:07:27.464Z,15.67
2017-12-20T12:09:54.415Z,16.67
2017-12-20T12:12:21.344Z,17.63
2017-12-20T12:14:47.564Z,14.23
2017-12-20T12:17:13.785Z,15.73
2017-12-20T12:19:40.000Z,17.10
2017-12-20T12:22:06.247Z,16.43
2017-12-20T12:24:32.424Z,14.60
2017-12-20T12:26:58.632Z,16.53
2017-12-20T12:29:25.568Z,16.87
2017-12-20T12:31:53.284Z,18.73
2017-12-20T12:34:19.537Z,14.30
2017-12-20T12:36:45.753Z,14.07
2017-12-20T12:39:11.941Z,14.03
2017-12-20T12:41:38.893Z,15.87
2017-12-20T12:44:05.088Z,16.23
2017-12-20T12:46:31.300Z,14.00
2017-12-20T12:48:57.512Z,12.27
2017-12-20T12:51:23.936Z,13.40
2017-12-20T12:53:50.119Z,14.03
2017-12-20T12:56:17.049Z,13.73
2017-12-20T12:58:43.277Z,12.47
2017-12-20T13:01:09.472Z,14.03
2017-12-20T13:03:35.816Z,11.77
2017-12-20T13:06:02.014Z,14.40
2017-12-20T13:08:28.299Z,16.33
2017-12-20T13:10:54.513Z,14.33
2017-12-20T13:13:20.693Z,12.83
2017-12-20T13:15:46.884Z,14.37
2017-12-20T13:18:13.095Z,13.27
2017-12-20T13:20:39.328Z,13.50
2017-12-20T13:23:05.517Z,11.20
2017-12-20T13:25:31.702Z,13.53
2017-12-20T13:27:59.397Z,13.13
2017-12-20T13:30:25.853Z,14.07
2017-12-20T13:32:52.060Z,11.77
2017-12-20T13:35:18.750Z,11.60
2017-12-20T13:37:44.968Z,13.87
2017-12-20T13:40:11.161Z,12.30
2017-12-20T13:42:37.344Z,12.60
2017-12-20T13:45:04.321Z,10.77
2017-12-20T13:47:31.247Z,9.83
2017-12-20T13:49:58.216Z,8.73
2017-12-20T13:52:25.140Z,8.63
2017-12-20T13:54:51.360Z,11.20
2017-12-20T13:57:17.548Z,11.10
2017-12-20T13:59:43.756Z,11.83
2017-12-20T14:02:09.950Z,11.80
2017-12-20T14:04:36.165Z,9.40
2017-12-20T14:07:02.416Z,10.17
2017-12-20T14:09:28.634Z,10.60
2017-12-20T14:11:55.131Z,10.03
2017-12-20T14:14:21.356Z,9.60
2017-12-20T14:16:47.545Z,11.57
2017-12-20T14:19:14.472Z,9.23
2017-12-20T14:21:41.424Z,11.67
2017-12-20T14:24:07.604Z,11.80
2017-12-20T14:26:33.812Z,10.57
2017-12-20T14:28:59.996Z,10.80
2017-12-20T14:31:26.374Z,10.20
2017-12-20T14:33:52.568Z,10.90
2017-12-20T14:36:18.792Z,10.10
2017-12-20T14:38:45.000Z,12.47
2017-12-20T14:41:11.185Z,9.10
2017-12-20T14:43:37.405Z,12.13
2017-12-20T14:46:04.357Z,10.03
2017-12-20T14:48:31.303Z,10.57
2017-12-20T14:50:58.273Z,10.40
2017-12-20T14:53:24.483Z,9.23
2017-12-20T14:55:50.681Z,12.20
2017-12-20T14:58:16.900Z,9.97
2017-12-20T15:00:43.100Z,9.90
2017-12-20T15:03:09.728Z,12.40
2017-12-20T15:05:35.921Z,10.10
2017-12-20T15:08:02.112Z,12.40
2017-12-20T15:10:28.320Z,10.30
2017-12-20T15:12:54.516Z,12.50
2017-12-20T15:15:21.531Z,11.80
2017-12-20T15:17:47.716Z,12.30
2017-12-20T15:20:13.929Z,10.93
2017-12-20T15:22:40.123Z,9.90
2017-12-20T15:25:06.337Z,10.80
2017-12-20T15:27:32.520Z,9.27
2017-12-20T15:29:58.723Z,11.50
2017-12-20T15:32:25.696Z,9.17
2017-12-20T15:34:51.912Z,10.63
2017-12-20T15:37:18.100Z,10.17
2017-12-20T15:39:44.572Z,11.27
2017-12-20T15:42:11.512Z,12.77
2017-12-20T15:44:38.449Z,12.53
2017-12-20T15:47:05.396Z,12.03
2017-12-20T15:49:32.332Z,9.90
2017-12-20T15:51:58.552Z,10.07
2017-12-20T15:54:24.740Z,12.57
2017-12-20T15:56:50.952Z,11.53
2017-12-20T15:59:17.156Z,9.97
2017-12-20T16:01:44.136Z,10.60
2017-12-20T16:04:10.329Z,10.97
2017-12-20T16:06:37.280Z,11.07
2017-12-20T16:09:04.240Z,10.60
2017-12-20T16:11:37.404Z,11.80
2017-12-20T16:14:03.602Z,12.37
2017-12-20T16:16:30.038Z,9.50
2017-12-20T16:18:56.252Z,11.80
2017-12-20T16:21:22.431Z,11.50
2017-12-20T16:23:49.380Z,14.10
2017-12-20T16:26:16.312Z,10.53
2017-12-20T16:28:42.501Z,13.47
2017-12-20T16:31:08.801Z,11.83
2017-12-20T16:33:34.991Z,13.57
2017-12-20T16:36:01.208Z,14.43
2017-12-20T16:38:27.396Z,14.20
2017-12-20T16:40:53.604Z,13.20
2017-12-20T16:43:20.555Z,13.40
2017-12-20T16:45:47.515Z,14.90
2017-12-20T16:48:13.704Z,12.00
2017-12-20T16:50:39.913Z,15.53
2017-12-20T16:53:06.100Z,12.57
2017-12-20T16:55:32.362Z,16.83
2017-12-20T16:57:58.549Z,15.10
2017-12-20T17:00:25.516Z,12.50
2017-12-20T17:02:51.742Z,12.00
2017-12-20T17:05:17.953Z,14.47
2017-12-20T17:07:44.168Z,11.20
2017-12-20T17:10:11.137Z,15.37
2017-12-20T17:12:37.329Z,14.50
2017-12-20T17:15:04.276Z,13.40
2017-12-20T17:17:30.472Z,15.53
2017-12-20T17:19:56.692Z,19.00
2017-12-20T17:22:22.888Z,21.50
2017-12-20T17:24:49.139Z,21.33
2017-12-20T17:27:15.372Z,24.20
2017-12-20T17:29:41.585Z,22.47
2017-12-20T17:32:07.838Z,30.03
2017-12-20T17:34:34.040Z,32.50
2017-12-20T17:37:00.493Z,34.43
2017-12-20T17:39:26.700Z,30.77
2017-12-20T17:41:52.889Z,32.90
2017-12-20T17:44:19.101Z,34.57
2017-12-20T17:46:45.296Z,27.23
2017-12-20T17:49:11.567Z,29.07
2017-12-20T17:51:37.752Z,26.77
2017-12-20T17:54:03.982Z,25.40
2017-12-20T17:56:30.235Z,16.37
2017-12-20T17:58:56.462Z,12.30
2017-12-20T18:01:22.679Z,12.67
2017-12-20T18:03:48.888Z,12.20
2017-12-20T18:06:15.573Z,14.70
2017-12-20T18:08:41.757Z,12.77
2017-12-20T18:11:07.953Z,14.60
2017-12-20T18:13:34.201Z,13.93
2017-12-20T18:16:01.136Z,13.33
2017-12-20T18:18:28.092Z,12.10
2017-12-20T18:20:55.024Z,18.17
2017-12-20T18:23:21.236Z,18.10
2017-12-20T18:25:48.913Z,13.07
2017-12-20T18:28:15.168Z,11.03
2017-12-20T18:30:42.139Z,18.13
2017-12-20T18:33:08.355Z,14.60
2017-12-20T18:35:34.571Z,17.30
2017-12-20T18:38:01.497Z,18.80
2017-12-20T18:40:27.713Z,13.77
2017-12-20T18:42:53.912Z,24.60
2017-12-20T18:45:20.144Z,21.23
2017-12-20T18:47:46.375Z,16.33
2017-12-20T18:50:12.669Z,13.17
2017-12-20T18:52:38.898Z,12.10
2017-12-20T18:55:05.097Z,15.83
2017-12-20T18:57:32.809Z,13.80
2017-12-20T18:59:59.046Z,12.90
2017-12-20T19:02:25.301Z,13.43
2017-12-20T19:04:51.633Z,12.50
2017-12-20T19:07:18.495Z,13.80
2017-12-20T19:09:45.444Z,11.03
2017-12-20T19:12:11.714Z,12.93
2017-12-20T19:14:37.947Z,11.53
2017-12-20T19:17:04.199Z,12.30
2017-12-20T19:19:30.412Z,13.50
2017-12-20T19:21:56.676Z,13.47
2017-12-20T19:24:22.889Z,12.43
2017-12-20T19:26:49.203Z,16.27
2017-12-20T19:29:15.531Z,13.20
2017-12-20T19:31:41.743Z,13.53
2017-12-20T19:34:08.038Z,14.27
2017-12-20T19:36:34.316Z,13.77
2017-12-20T19:39:00.552Z,16.37
2017-12-20T19:41:26.916Z,11.77
2017-12-20T19:43:53.876Z,13.13
2017-12-20T19:46:20.134Z,9.27
2017-12-20T19:48:46.368Z,12.00
2017-12-20T19:51:12.641Z,11.43
2017-12-20T19:53:38.878Z,11.50
2017-12-20T19:56:05.124Z,11.30
2017-12-20T19:58:31.381Z,10.67
2017-12-20T20:00:57.636Z,11.97
2017-12-20T20:03:23.895Z,12.67
2017-12-20T20:05:50.135Z,10.30
2017-12-20T20:08:16.390Z,16.80
2017-12-20T20:10:42.666Z,19.97
2017-12-20T20:13:08.904Z,26.00
2017-12-20T20:15:35.164Z,27.13
2017-12-20T20:18:01.399Z,36.90
2017-12-20T20:20:28.711Z,38.87
2017-12-20T20:22:54.964Z,46.30
2017-12-20T20:25:21.230Z,41.67
2017-12-20T20:27:48.152Z,50.80
2017-12-20T20:30:15.080Z,43.17
2017-12-20T20:32:41.363Z,33.97
2017-12-20T20:35:07.643Z,43.43
2017-12-20T20:37:33.894Z,39.37
2017-12-20T20:40:00.860Z,50.80
2017-12-20T20:42:27.123Z,38.03
2017-12-20T20:44:53.346Z,42.90
2017-12-20T20:47:19.897Z,48.20
2017-12-20T20:49:46.152Z,43.40
2017-12-20T20:52:12.387Z,49.80
2017-12-20T20:54:38.644Z,38.20
2017-12-20T20:57:04.888Z,47.90
2017-12-20T20:59:31.147Z,55.70
2017-12-20T21:01:57.404Z,35.07
2017-12-20T21:04:23.584Z,38.77
2017-12-20T21:06:49.848Z,42.43
2017-12-20T21:09:16.083Z,41.37
2017-12-20T21:11:43.808Z,46.70
2017-12-20T21:14:10.107Z,46.57
2017-12-20T21:16:37.084Z,39.67
2017-12-20T21:19:03.339Z,39.60
2017-12-20T21:21:29.576Z,36.70
2017-12-20T21:23:55.839Z,42.50
2017-12-20T21:26:22.820Z,51.57
2017-12-20T21:28:49.000Z,38.93
2017-12-20T21:31:15.260Z,39.30
2017-12-20T21:33:41.495Z,43.70
2017-12-20T21:36:07.843Z,50.30
2017-12-20T21:38:34.071Z,44.70
2017-12-20T21:41:00.413Z,41.57
2017-12-20T21:43:26.648Z,43.07
2017-12-20T21:45:52.877Z,50.27
2017-12-20T21:48:19.231Z,41.83
2017-12-20T21:50:45.468Z,50.57
2017-12-20T21:53:11.668Z,39.37
2017-12-20T21:55:37.982Z,37.83
2017-12-20T21:58:04.256Z,38.33
2017-12-20T22:00:30.535Z,38.93
2017-12-20T22:02:56.803Z,44.13
2017-12-20T22:05:22.993Z,40.37
2017-12-20T22:07:49.240Z,45.87
2017-12-20T22:10:15.424Z,44.20
2017-12-20T22:12:42.391Z,33.73
2017-12-20T22:15:09.482Z,23.37
2017-12-20T22:17:35.719Z,37.40
2017-12-20T22:20:02.598Z,37.47
2017-12-20T22:22:29.572Z,43.07
2017-12-20T22:24:55.804Z,39.10
2017-12-20T22:27:22.083Z,52.73
2017-12-20T22:29:48.320Z,44.10
2017-12-20T22:32:15.392Z,28.03
2017-12-20T22:34:41.668Z,40.60
2017-12-20T22:37:08.007Z,25.83
2017-12-20T22:39:34.238Z,36.73
2017-12-20T22:42:00.527Z,43.60
2017-12-20T22:44:26.815Z,31.73
2017-12-20T22:46:53.795Z,36.57
2017-12-20T22:49:20.031Z,21.73
2017-12-20T22:51:46.302Z,29.77
2017-12-20T22:54:12.550Z,28.90
2017-12-20T22:56:38.885Z,31.50
2017-12-20T22:59:05.898Z,38.77
2017-12-20T23:01:32.079Z,33.97
2017-12-20T23:03:59.416Z,29.67
2017-12-20T23:06:26.388Z,24.00
2017-12-20T23:08:52.576Z,41.40
2017-12-20T23:11:18.856Z,49.30
2017-12-20T23:13:45.137Z,44.20
2017-12-20T23:16:11.404Z,37.07
2017-12-20T23:18:37.592Z,23.00
2017-12-20T23:21:03.824Z,40.33
2017-12-20T23:23:30.794Z,41.10
2017-12-20T23:25:57.818Z,32.33
2017-12-20T23:28:24.068Z,32.23
2017-12-20T23:30:50.996Z,31.77
2017-12-20T23:33:17.184Z,27.57
2017-12-20T23:35:43.510Z,29.53
2017-12-20T23:38:09.700Z,27.47
2017-12-20T23:40:36.704Z,32.63
2017-12-20T23:43:02.916Z,23.30
2017-12-20T23:45:29.186Z,27.67
2017-12-20T23:47:55.372Z,12.73
2017-12-20T23:50:21.605Z,17.00
2017-12-20T23:52:47.836Z,16.87
2017-12-20T23:55:14.127Z,22.47
2017-12-20T23:57:41.062Z,19.20
